Northampton, Pennsylvania
Current Conditions -  °F | °C
As of 1:51 AM on Saturday 25 Oct 2014 (Local Time) from KABE Reporting Station
Clear Clear  
Wind Chill: 51°   Ceiling: Unl
Heat Index: 51°   Visibility: 10mi
Dew Point: 29°   Wind: 6mph
Humidity: 43%   Direction: 320°NW
Pressure: 29.9"   Gusts: NA
Location:  40.69°N, 75.5°W
Report Text: KABE 250551Z 32005KT 10SM CLR 11/M02 A2990 RMK AO2 SLP124 T01061017 10156 20078 53004
Loading
Personal Weather Stations






























Interactive Weather Map
Tropical Storm Tracking
New forecast layout! Learn more

10-Day Weather Forecast

Advertisements
Track Severe Weather on mobile